BBC Orinoco — V2DM2 — position and weather

sailwx.info

Track history (hours):
 
Tides and Currents Weather Stations Pressure Air Temp Water Temp Dewpoint Dewpoint Depression Visibility Wind Speed Wind Dir Waves Ship Positions

BBC Orinoco

Last reported at 2017-Sep-26 01:37 UTC. Time now 2017-Oct-17 13:22 UTC.
Position N 29°23' W 094°49'.
Warning: this ship's position is 21 days out of date.

Length 143 m; draft 6.3 m.

Type: Ship. MMSI: 305255000.

Date/timePositionNaut miles runAvg speedWind from/ knotsBaromVisibWave heightAir tempDewpointWater temp
2017-Sep-26 01:37N 29°23' W 094°49'111.5
2017-Sep-26 01:30N 29°25' W 094°49'612.1
2017-Sep-26 01:00N 29°30' W 094°52'612.3
2017-Sep-26 00:31N 29°35' W 094°56'612.6
2017-Sep-26 00:01N 29°41' W 094°59'4 8.8
2017-Sep-25 23:30N 29°44' W 095°03'3 6.0
2017-Sep-25 22:58N 29°45' W 095°06'3 6.4
2017-Sep-25 22:28N 29°45' W 095°10'3 5.8
2017-Sep-25 22:00N 29°44' W 095°13'  
2017-Sep-18 11:43N 29°45' W 095°11'2 7.1
2017-Sep-18 11:29N 29°44' W 095°09'3 7.0
2017-Sep-18 11:00N 29°45' W 095°06'4 7.6
2017-Sep-18 10:30N 29°44' W 095°02'510.5
2017-Sep-18 09:59N 29°39' W 094°58'611.6
2017-Sep-18 09:30N 29°34' W 094°55'611.3
2017-Sep-18 09:00N 29°29' W 094°52'  
Track history (hours):
 
Tides and Currents Weather Stations Pressure Air Temp Water Temp Dewpoint Dewpoint Depression Visibility Wind Speed Wind Dir Waves Ship Positions

BBC Orinoco

Last reported at 2017-Sep-26 01:37 UTC. Time now 2017-Oct-17 13:22 UTC.
Position N 29°23' W 094°49'.
Warning: this ship's position is 21 days out of date.

Length 143 m; draft 6.3 m.

Type: Ship. MMSI: 305255000.

Date/timePositionNaut miles runAvg speedWind from/ knotsBaromVisibWave heightAir tempDewpointWater temp
2017-Sep-26 01:37N 29°23' W 094°49'111.5
2017-Sep-26 01:30N 29°25' W 094°49'612.1
2017-Sep-26 01:00N 29°30' W 094°52'612.3
2017-Sep-26 00:31N 29°35' W 094°56'612.6
2017-Sep-26 00:01N 29°41' W 094°59'4 8.8
2017-Sep-25 23:30N 29°44' W 095°03'3 6.0
2017-Sep-25 22:58N 29°45' W 095°06'3 6.4
2017-Sep-25 22:28N 29°45' W 095°10'3 5.8
2017-Sep-25 22:00N 29°44' W 095°13'  
2017-Sep-18 11:43N 29°45' W 095°11'2 7.1
2017-Sep-18 11:29N 29°44' W 095°09'3 7.0
2017-Sep-18 11:00N 29°45' W 095°06'4 7.6
2017-Sep-18 10:30N 29°44' W 095°02'510.5
2017-Sep-18 09:59N 29°39' W 094°58'611.6
2017-Sep-18 09:30N 29°34' W 094°55'611.3
2017-Sep-18 09:00N 29°29' W 094°52'  

Dump ship's entire track history